Walsenburg, Colorado
Current Conditions -  °F | °C
As of 12:29 AM on Wednesday 22 Oct 2014 (Local Time) from KVTP Reporting Station
Scattered Clouds Scattered Clouds  
Wind Chill: 32°   Ceiling: Unl
Heat Index: 39°   Visibility: 10mi
Dew Point: 34°   Wind: 13mph
Humidity: 81%   Direction: 190°S
Pressure: 30.24"   Gusts: 25mph
Location:  37.62°N, 104.78°W
Report Text: KVTP 220629Z AUTO 19011G22KT 10SM SCT019 04/01 A3024 RMK AO2
Loading
Personal Weather Stations






























Interactive Weather Map
Tropical Storm Tracking
New forecast layout! Learn more

10-Day Weather Forecast

Advertisements
Track Severe Weather on mobile